Blackville, South Carolina
Current Conditions -  °F | °C
As of 5:15 AM on Sunday 25 Jan 2015 (Local Time) from KBNL Reporting Station
NA  
Wind Chill: 34°   Ceiling: NA
Heat Index: 34°   Visibility: NA
Dew Point: 32°   Wind: 0mph
Humidity: 93%   Direction: NA
Pressure: 29.95"   Gusts: NA
Location:  33.36°N, 81.27°W
Report Text: KBNL 251015Z AUTO 00000KT 01/00 A2995 RMK AO2
Loading
Personal Weather Stations






























Interactive Weather Map New forecast layout! Learn more

10-Day Weather Forecast

Advertisements
Track Severe Weather on mobile